Time;durP1;ratioP1;P1;durP2;ratioP2;P2;SDS_P1;SDS_P2;PMS_P1;PMS_P2;Temp;Humidity;BMP_temperature;BMP_pressure;BME280_temperature;BME280_humidity;BME280_pressure;Samples;Min_cycle;Max_cycle;Signal;HPM_P1;HPM_P2
2021/01/26 00:00:38;;;;;;;13.60;7.50;;;;;;;0.61;98.65;95833.16;5076559;28;20449;-86
2021/01/26 00:03:05;;;;;;;17.77;8.80;;;;;;;0.65;97.81;95846.19;5076858;28;20445;-86
2021/01/26 00:05:31;;;;;;;10.60;7.47;;;;;;;0.57;97.86;95840.66;5078454;28;20437;-82
2021/01/26 00:07:57;;;;;;;11.17;6.70;;;;;;;0.57;97.28;95840.66;5077859;28;20421;-85
2021/01/26 00:10:24;;;;;;;12.53;7.40;;;;;;;0.47;97.76;95842.13;5076634;28;20471;-85
2021/01/26 00:12:51;;;;;;;12.90;7.20;;;;;;;0.51;96.94;95843.31;5076752;28;20822;-85
2021/01/26 00:15:17;;;;;;;9.20;6.30;;;;;;;0.47;96.50;95842.84;5076801;28;20484;-86
2021/01/26 00:17:44;;;;;;;11.10;6.80;;;;;;;0.54;95.93;95849.59;5076372;28;20930;-86
2021/01/26 00:20:13;;;;;;;13.77;8.53;;;;;;;0.59;95.59;95845.47;5076151;28;20785;-85
2021/01/26 00:22:39;;;;;;;8.60;6.40;;;;;;;0.42;95.92;95851.53;5076890;28;20445;-82
2021/01/26 00:25:07;;;;;;;9.27;7.00;;;;;;;0.35;96.21;95848.66;5077929;28;20435;-82
2021/01/26 00:27:33;;;;;;;11.60;7.67;;;;;;;0.34;96.71;95847.22;5077987;28;20515;-82
2021/01/26 00:30:01;;;;;;;14.70;7.77;;;;;;;0.42;96.95;95856.13;5078055;28;20442;-83
2021/01/26 00:32:27;;;;;;;8.83;6.33;;;;;;;0.34;96.50;95849.88;5076875;28;21000;-82
2021/01/26 00:34:53;;;;;;;14.67;8.03;;;;;;;0.38;97.06;95850.31;5077702;28;20488;-82
2021/01/26 00:37:20;;;;;;;9.90;7.13;;;;;;;0.36;97.00;95850.81;5077366;28;20527;-82
2021/01/26 00:39:46;;;;;;;14.70;8.40;;;;;;;0.36;97.01;95845.53;5078726;28;20450;-85
2021/01/26 00:42:12;;;;;;;11.67;7.53;;;;;;;0.35;97.05;95854.69;5085740;28;20441;-84
2021/01/26 00:44:39;;;;;;;10.23;6.57;;;;;;;0.30;96.59;95849.38;5094186;28;20449;-85
2021/01/26 00:47:06;;;;;;;9.53;7.00;;;;;;;0.23;96.57;95847.22;5076471;28;20446;-86
2021/01/26 00:49:32;;;;;;;9.80;6.40;;;;;;;0.27;96.80;95847.69;5088995;28;20494;-84
2021/01/26 00:51:59;;;;;;;13.17;7.87;;;;;;;0.27;96.27;95855.66;5100511;28;20452;-83
2021/01/26 00:54:25;;;;;;;10.90;6.87;;;;;;;0.21;96.26;95855.66;5100361;28;20479;-84
2021/01/26 00:56:51;;;;;;;10.23;7.10;;;;;;;0.22;96.47;95856.41;5100319;28;20477;-83
2021/01/26 00:59:18;;;;;;;11.87;7.57;;;;;;;0.15;96.33;95862.19;5082267;28;20417;-85
2021/01/26 01:01:44;;;;;;;10.03;6.90;;;;;;;0.16;96.25;95866.28;5075530;28;20560;-85
2021/01/26 01:04:11;;;;;;;10.67;5.93;;;;;;;0.07;96.45;95856.63;5075623;28;20938;-86
2021/01/26 01:06:38;;;;;;;9.30;6.80;;;;;;;0.07;96.10;95856.63;5075701;28;20440;-85
2021/01/26 01:09:05;;;;;;;11.00;7.23;;;;;;;0.02;95.95;95862.66;5075674;28;20532;-85
2021/01/26 01:11:31;;;;;;;10.10;6.93;;;;;;;-0.03;96.16;95858.78;5075332;28;20461;-85
2021/01/26 01:13:58;;;;;;;12.20;6.37;;;;;;;-0.07;95.88;95863.63;5075431;28;20434;-85
2021/01/26 01:16:24;;;;;;;8.97;6.53;;;;;;;-0.07;95.99;95865.53;5098833;28;20401;-84
2021/01/26 01:18:50;;;;;;;11.87;7.07;;;;;;;0.00;95.62;95873.03;5099655;28;20489;-84
2021/01/26 01:21:18;;;;;;;10.23;7.83;;;;;;;0.03;95.08;95879.28;5099837;28;20469;-85
2021/01/26 01:23:44;;;;;;;9.03;6.47;;;;;;;-0.05;95.59;95874.47;5075622;28;20487;-84
2021/01/26 01:26:10;;;;;;;12.03;8.43;;;;;;;-0.07;95.70;95884.09;5075255;28;20808;-85
2021/01/26 01:28:37;;;;;;;10.30;7.13;;;;;;;-0.11;96.03;95888.91;5077973;28;20452;-85
2021/01/26 01:31:10;;;;;;;12.90;7.50;;;;;;;-0.03;95.93;95890.59;5113295;27;20521;-85
2021/01/26 01:33:36;;;;;;;13.70;8.27;;;;;;;0.02;95.42;95894.47;5112147;28;20530;-84
2021/01/26 01:36:04;;;;;;;11.20;8.00;;;;;;;0.07;95.54;95903.63;5110998;28;20443;-84
2021/01/26 01:38:30;;;;;;;12.73;7.20;;;;;;;0.09;94.89;95906.53;5091533;28;20528;-84
2021/01/26 01:40:56;;;;;;;9.50;7.57;;;;;;;0.12;94.34;95910.88;5091668;28;20464;-85
2021/01/26 01:43:23;;;;;;;14.20;8.03;;;;;;;0.10;93.89;95919.31;5091306;28;20974;-84
2021/01/26 01:45:49;;;;;;;10.57;7.27;;;;;;;0.03;93.16;95917.16;5091747;28;20445;-85
2021/01/26 01:48:22;;;;;;;9.87;6.77;;;;;;;0.12;92.79;95921.47;5091309;28;20928;-84
2021/01/26 01:50:52;;;;;;;10.80;7.13;;;;;;;0.10;92.01;95911.34;5091450;28;20488;-84
2021/01/26 01:53:23;;;;;;;9.97;6.40;;;;;;;0.00;91.89;95916.16;5092064;28;20445;-84
2021/01/26 01:55:54;;;;;;;11.40;6.63;;;;;;;-0.07;92.31;95914.00;5091798;28;20424;-84
2021/01/26 01:58:26;;;;;;;9.53;6.53;;;;;;;0.06;91.89;95918.84;5091834;28;20514;-84
2021/01/26 02:00:57;;;;;;;9.67;7.20;;;;;;;0.13;91.75;95925.56;5091253;28;20457;-84
2021/01/26 02:03:28;;;;;;;11.00;6.00;;;;;;;0.05;91.48;95920.03;5091464;28;20452;-84
2021/01/26 02:05:56;;;;;;;11.33;6.70;;;;;;;-0.01;91.42;95920.03;5092198;28;20523;-84
2021/01/26 02:08:29;;;;;;;9.83;6.03;;;;;;;0.00;91.46;95928.72;5091740;28;21108;-84
2021/01/26 02:10:56;;;;;;;10.47;5.70;;;;;;;-0.09;91.33;95937.59;5091108;28;20539;-81
2021/01/26 02:13:22;;;;;;;13.67;6.30;;;;;;;-0.11;91.48;95933.97;5092757;28;20809;-81
2021/01/26 02:15:53;;;;;;;13.33;7.43;;;;;;;-0.07;91.79;95943.16;5093160;28;20912;-81
2021/01/26 02:18:40;;;;;;;9.47;6.50;;;;;;;0.04;91.55;95937.13;5093590;28;20441;-81
2021/01/26 02:21:45;;;;;;;10.50;7.10;;;;;;;0.09;91.49;95938.34;5094139;28;20567;-80
2021/01/26 02:25:01;;;;;;;16.40;7.07;;;;;;;0.04;91.14;95939.06;5093990;28;20436;-80
2021/01/26 02:28:15;;;;;;;11.23;6.73;;;;;;;-0.11;91.28;95934.72;5094216;28;20440;-81
2021/01/26 02:30:55;;;;;;;11.57;7.10;;;;;;;-0.12;91.56;95938.56;5093179;28;20485;-81
2021/01/26 02:34:02;;;;;;;15.03;7.97;;;;;;;-0.12;91.29;95951.06;5093901;28;20490;-81
2021/01/26 02:36:56;;;;;;;14.80;7.50;;;;;;;-0.13;91.46;95953.03;5093463;28;20936;-81
2021/01/26 02:39:39;;;;;;;11.80;7.00;;;;;;;-0.13;91.54;95955.69;5092980;28;20401;-81
2021/01/26 02:42:33;;;;;;;12.07;6.90;;;;;;;-0.09;91.59;95958.06;5082517;28;20457;-80
2021/01/26 02:45:14;;;;;;;11.77;7.17;;;;;;;-0.08;91.44;95952.31;5079277;28;20429;-81
2021/01/26 02:47:48;;;;;;;13.47;7.13;;;;;;;-0.12;91.34;95951.81;5077324;28;20416;-84
2021/01/26 02:50:25;;;;;;;13.37;8.27;;;;;;;-0.06;91.70;95960.50;5076670;28;20465;-84
2021/01/26 02:53:00;;;;;;;11.83;7.47;;;;;;;-0.14;91.49;95964.81;5076809;28;20420;-84
2021/01/26 02:55:35;;;;;;;11.30;7.43;;;;;;;-0.10;91.75;95960.03;5076390;28;20473;-83
2021/01/26 02:58:06;;;;;;;13.27;7.90;;;;;;;-0.05;91.29;95955.91;5077531;28;20486;-81
2021/01/26 03:00:36;;;;;;;13.53;7.60;;;;;;;0.04;90.85;95960.28;5078760;28;20430;-81
2021/01/26 03:03:09;;;;;;;16.87;7.90;;;;;;;0.00;90.82;95969.19;5078965;28;20461;-81
2021/01/26 03:05:42;;;;;;;14.83;8.17;;;;;;;-0.06;91.07;95973.75;5078995;28;20437;-81
2021/01/26 03:08:14;;;;;;;15.10;7.20;;;;;;;-0.03;91.48;95969.41;5078816;28;20971;-81
2021/01/26 03:10:46;;;;;;;13.80;7.77;;;;;;;0.00;91.95;95968.47;5078545;28;20538;-81
2021/01/26 03:13:16;;;;;;;14.17;8.53;;;;;;;0.10;91.56;95975.00;5078460;28;20434;-81
2021/01/26 03:15:49;;;;;;;12.73;7.40;;;;;;;0.14;91.02;95974.75;5078642;28;20505;-81
2021/01/26 03:18:21;;;;;;;12.57;7.77;;;;;;;0.09;90.63;95962.94;5078711;28;20434;-81
2021/01/26 03:20:53;;;;;;;14.43;8.03;;;;;;;0.18;90.18;95970.69;5077731;28;20453;-84
2021/01/26 03:23:27;;;;;;;11.03;7.07;;;;;;;0.18;89.64;95959.34;5076135;28;20418;-84
2021/01/26 03:25:55;;;;;;;18.80;8.40;;;;;;;0.15;89.78;95961.03;5075919;28;20979;-84
2021/01/26 03:28:24;;;;;;;14.10;9.53;;;;;;;0.04;89.85;95955.69;5093248;28;20468;-84
2021/01/26 03:30:53;;;;;;;12.83;7.60;;;;;;;-0.02;90.48;95953.03;5095860;28;20488;-84
2021/01/26 03:33:25;;;;;;;13.17;7.53;;;;;;;-0.09;90.50;95942.91;5096402;28;20428;-84
2021/01/26 03:35:51;;;;;;;13.73;8.27;;;;;;;-0.06;90.45;95944.59;5098150;28;20516;-80
2021/01/26 03:38:21;;;;;;;13.53;8.47;;;;;;;-0.06;90.61;95943.84;5098836;28;20500;-80
2021/01/26 03:40:49;;;;;;;14.13;7.40;;;;;;;-0.17;91.02;95941.94;5098887;28;20996;-81
2021/01/26 03:43:17;;;;;;;13.43;8.90;;;;;;;-0.15;91.56;95936.84;5099662;28;20561;-81
2021/01/26 03:45:45;;;;;;;11.43;6.90;;;;;;;-0.18;91.65;95937.81;5098919;28;21007;-80
2021/01/26 03:48:29;;;;;;;14.53;7.93;;;;;;;-0.11;91.49;95950.63;5097807;28;20440;-84
2021/01/26 03:51:05;;;;;;;13.63;7.63;;;;;;;-0.19;91.59;95946.97;5113707;28;20502;-83
2021/01/26 03:53:57;;;;;;;15.63;8.47;;;;;;;-0.19;91.49;95941.66;5119659;28;20417;-83
2021/01/26 03:56:40;;;;;;;19.70;9.00;;;;;;;-0.18;92.13;95945.78;5120669;28;20413;-82
2021/01/26 03:59:18;;;;;;;15.30;8.37;;;;;;;-0.20;91.85;95942.88;5108876;28;20421;-84
2021/01/26 04:01:51;;;;;;;14.50;8.67;;;;;;;-0.20;92.16;95945.53;5104586;28;20532;-85
2021/01/26 04:04:25;;;;;;;17.30;9.43;;;;;;;-0.19;92.16;95946.97;5106123;28;20442;-80
2021/01/26 04:06:53;;;;;;;18.83;8.70;;;;;;;-0.06;91.94;95946.50;5105893;28;20420;-81
2021/01/26 04:09:24;;;;;;;13.33;9.60;;;;;;;-0.05;91.45;95947.97;5105991;28;20476;-79
2021/01/26 04:11:55;;;;;;;17.03;8.47;;;;;;;-0.08;91.86;95947.00;5098799;28;20464;-81
2021/01/26 04:14:28;;;;;;;12.47;8.20;;;;;;;-0.15;92.06;95950.13;5098072;28;20464;-81
2021/01/26 04:17:01;;;;;;;12.73;7.33;;;;;;;-0.23;92.65;95941.19;5098484;28;20424;-81
2021/01/26 04:19:32;;;;;;;21.73;9.00;;;;;;;-0.26;92.54;95934.19;5098288;28;20433;-81
2021/01/26 04:22:01;;;;;;;17.10;10.03;;;;;;;-0.39;93.33;95938.47;5097402;28;20639;-81
2021/01/26 04:24:32;;;;;;;16.43;9.50;;;;;;;-0.40;93.71;95937.75;5097800;28;20444;-81
2021/01/26 04:27:00;;;;;;;18.03;9.47;;;;;;;-0.33;94.04;95936.56;5099484;28;20440;-81
2021/01/26 04:29:27;;;;;;;18.17;10.07;;;;;;;-0.18;94.02;95937.81;5098909;28;20840;-81
2021/01/26 04:31:54;;;;;;;15.50;9.50;;;;;;;-0.16;93.65;95937.34;5099385;28;20461;-81
2021/01/26 04:34:21;;;;;;;13.90;8.80;;;;;;;-0.08;94.35;95940.97;5099276;28;20447;-81
2021/01/26 04:36:47;;;;;;;20.13;9.73;;;;;;;0.03;93.15;95946.31;5099225;28;20429;-81
2021/01/26 04:39:13;;;;;;;15.33;8.07;;;;;;;-0.01;93.12;95935.94;5099055;28;20502;-81
2021/01/26 04:41:42;;;;;;;15.37;9.50;;;;;;;-0.03;93.50;95935.66;5097952;28;20441;-84
2021/01/26 04:44:22;;;;;;;13.80;8.50;;;;;;;-0.02;93.34;95929.19;5095213;28;20511;-84
2021/01/26 04:46:59;;;;;;;11.30;8.27;;;;;;;0.03;93.11;95933.06;5095750;28;20435;-84
2021/01/26 04:49:31;;;;;;;16.30;8.80;;;;;;;0.07;93.62;95935.44;5095311;28;20460;-85
2021/01/26 04:52:06;;;;;;;15.03;8.10;;;;;;;0.12;93.29;95932.09;5095323;28;20532;-84
2021/01/26 04:54:52;;;;;;;15.27;8.80;;;;;;;0.15;93.16;95937.16;5095412;28;20485;-84
2021/01/26 04:57:38;;;;;;;13.80;8.47;;;;;;;0.10;93.65;95940.50;5095374;28;20429;-85
2021/01/26 05:00:26;;;;;;;13.33;8.73;;;;;;;0.07;94.26;95940.75;5094542;28;21078;-85
2021/01/26 05:03:13;;;;;;;9.83;6.97;;;;;;;0.17;93.92;95934.00;5096341;28;20441;-81
2021/01/26 05:05:45;;;;;;;13.27;7.60;;;;;;;0.26;93.21;95941.75;5096010;28;20447;-82
2021/01/26 05:08:20;;;;;;;10.67;6.87;;;;;;;0.29;92.76;95954.75;5096428;28;20425;-81
2021/01/26 05:10:50;;;;;;;10.33;6.50;;;;;;;0.32;93.17;95950.41;5094876;28;20539;-84
2021/01/26 05:13:22;;;;;;;13.23;7.20;;;;;;;0.33;92.98;95957.19;5095459;28;20425;-84
2021/01/26 05:15:56;;;;;;;18.00;7.43;;;;;;;0.30;93.26;95952.84;5094563;28;20885;-84
2021/01/26 05:18:31;;;;;;;11.87;6.77;;;;;;;0.34;93.26;95963.94;5094772;28;20511;-84
2021/01/26 05:21:04;;;;;;;10.70;6.57;;;;;;;0.35;93.56;95968.03;5095487;28;20459;-81
2021/01/26 05:23:37;;;;;;;13.40;7.73;;;;;;;0.39;92.80;95966.59;5096551;28;20421;-81
2021/01/26 05:26:08;;;;;;;11.77;6.43;;;;;;;0.34;93.37;95967.31;5096498;28;20956;-84
2021/01/26 05:28:35;;;;;;;12.10;7.17;;;;;;;0.34;93.04;95977.94;5094592;28;20421;-84
2021/01/26 05:31:08;;;;;;;16.83;6.40;;;;;;;0.29;93.14;95983.22;5093999;28;20488;-84
2021/01/26 05:33:37;;;;;;;10.17;6.47;;;;;;;0.42;93.46;95984.19;5094934;28;20531;-81
2021/01/26 05:36:04;;;;;;;10.43;5.97;;;;;;;0.45;93.31;95974.56;5097991;28;20433;-81
2021/01/26 05:38:31;;;;;;;8.33;5.47;;;;;;;0.42;92.92;95973.59;5097755;28;20424;-81
2021/01/26 05:41:03;;;;;;;16.20;6.63;;;;;;;0.43;92.83;95975.03;5095858;28;20486;-85
2021/01/26 05:43:31;;;;;;;9.40;6.30;;;;;;;0.50;92.91;95981.81;5094242;28;20437;-85
2021/01/26 05:46:00;;;;;;;12.50;6.50;;;;;;;0.48;93.25;95979.63;5094720;28;20433;-85
2021/01/26 05:48:27;;;;;;;15.83;6.80;;;;;;;0.49;92.47;95989.03;5094744;28;20440;-85
2021/01/26 05:51:17;;;;;;;11.93;6.53;;;;;;;0.37;93.67;95984.22;5094332;28;20992;-85
2021/01/26 05:53:50;;;;;;;10.30;6.87;;;;;;;0.50;92.84;95979.84;5094403;28;20452;-86
2021/01/26 05:56:18;;;;;;;12.50;6.53;;;;;;;0.46;92.15;95973.34;5095193;28;20417;-85
2021/01/26 05:58:47;;;;;;;13.17;6.50;;;;;;;0.54;92.48;95979.63;5094536;28;20540;-85
2021/01/26 06:01:24;;;;;;;10.37;5.60;;;;;;;0.54;92.09;95969.00;5094866;28;20574;-86
2021/01/26 06:04:06;;;;;;;10.50;7.63;;;;;;;0.46;92.02;95968.78;5094209;28;20455;-85
2021/01/26 06:06:48;;;;;;;8.33;5.47;;;;;;;0.51;92.37;95967.31;5094625;28;20427;-84
2021/01/26 06:09:27;;;;;;;10.70;5.20;;;;;;;0.51;91.73;95985.88;5094686;28;20428;-84
2021/01/26 06:12:05;;;;;;;13.40;5.50;;;;;;;0.52;91.73;95984.69;5094394;28;20482;-86
2021/01/26 06:14:31;;;;;;;8.40;5.00;;;;;;;0.42;92.28;95980.81;5096812;28;20539;-85
2021/01/26 06:17:04;;;;;;;9.37;4.70;;;;;;;0.39;93.08;95989.75;5098486;28;20421;-85
2021/01/26 06:19:30;;;;;;;8.97;4.60;;;;;;;0.50;93.02;95992.41;5104600;28;20397;-85
2021/01/26 06:21:58;;;;;;;8.40;4.17;;;;;;;0.54;92.48;95987.59;5118787;28;20463;-86
2021/01/26 06:24:26;;;;;;;10.07;4.23;;;;;;;0.62;92.29;96001.09;5100128;28;20425;-85
2021/01/26 06:27:28;;;;;;;9.47;5.00;;;;;;;0.50;92.23;95993.13;5078297;28;20452;-85
2021/01/26 06:30:08;;;;;;;9.80;4.40;;;;;;;0.62;92.18;96009.06;5070173;28;20476;-84
2021/01/26 06:32:54;;;;;;;7.47;4.40;;;;;;;0.69;92.07;96008.59;5079636;28;20441;-86
2021/01/26 06:35:27;;;;;;;8.30;4.90;;;;;;;0.73;91.85;96017.75;5079518;28;20434;-85
2021/01/26 06:38:29;;;;;;;11.43;4.60;;;;;;;0.83;91.34;96018.22;5078513;28;20426;-86
2021/01/26 06:41:16;;;;;;;10.67;5.03;;;;;;;0.83;91.49;96023.53;5058314;28;20469;-84
2021/01/26 06:44:02;;;;;;;7.77;3.43;;;;;;;0.89;90.85;96024.25;5079156;28;20722;-85
2021/01/26 06:46:44;;;;;;;8.03;4.10;;;;;;;0.99;90.53;96020.88;5078842;28;20493;-85
2021/01/26 06:49:40;;;;;;;9.23;5.57;;;;;;;0.98;90.97;96032.72;5081205;28;20475;-87
2021/01/26 06:52:28;;;;;;;9.03;3.73;;;;;;;0.97;90.69;96035.88;5097356;28;20445;-84
2021/01/26 06:55:11;;;;;;;11.97;5.47;;;;;;;0.97;90.43;96038.53;5100895;28;20398;-84
2021/01/26 06:58:03;;;;;;;8.77;5.40;;;;;;;0.97;91.30;96049.84;5100884;28;20434;-86
2021/01/26 07:01:16;;;;;;;7.10;3.33;;;;;;;1.04;91.06;96041.41;5102091;28;20464;-84
2021/01/26 07:04:11;;;;;;;6.23;3.80;;;;;;;0.98;90.83;96053.22;5098617;28;20424;-84
2021/01/26 07:07:14;;;;;;;8.50;4.80;;;;;;;0.92;91.26;96063.84;5098403;28;20547;-84
2021/01/26 07:10:01;;;;;;;6.20;4.50;;;;;;;1.00;91.57;96066.78;5098516;28;20484;-86
2021/01/26 07:13:08;;;;;;;6.90;3.80;;;;;;;0.90;91.55;96068.94;5097500;28;20601;-85
2021/01/26 07:16:19;;;;;;;5.33;3.33;;;;;;;0.89;91.10;96064.09;5089479;28;20452;-85
2021/01/26 07:19:13;;;;;;;8.83;3.93;;;;;;;0.99;91.34;96068.69;5095188;28;20444;-86
2021/01/26 07:21:53;;;;;;;9.63;4.00;;;;;;;1.03;91.43;96069.16;5098498;28;20457;-87
2021/01/26 07:24:27;;;;;;;11.43;3.53;;;;;;;1.03;92.23;96082.44;5098506;28;20808;-87
2021/01/26 07:27:11;;;;;;;7.10;3.47;;;;;;;1.10;91.51;96089.19;5098695;28;20918;-87
2021/01/26 07:29:59;;;;;;;12.87;3.50;;;;;;;1.01;92.53;96094.75;5098654;28;20567;-90
2021/01/26 07:32:33;;;;;;;13.00;4.70;;;;;;;0.95;93.30;96086.78;5099589;28;20464;-89
2021/01/26 07:35:08;;;;;;;7.87;3.77;;;;;;;1.02;93.43;96096.22;5101281;28;20856;-87
2021/01/26 07:37:44;;;;;;;6.83;3.93;;;;;;;0.96;93.87;96106.13;5120125;28;20420;-87
2021/01/26 07:40:21;;;;;;;7.00;3.63;;;;;;;1.04;93.66;96102.50;5120162;28;20394;-90
2021/01/26 07:42:59;;;;;;;4.57;3.17;;;;;;;1.08;93.77;96116.25;5113895;28;20424;-86
2021/01/26 07:45:31;;;;;;;7.40;3.73;;;;;;;1.06;94.15;96123.28;5098298;28;20405;-85
2021/01/26 07:48:06;;;;;;;10.97;4.70;;;;;;;1.04;94.52;96131.72;5098198;28;20429;-87
2021/01/26 07:50:37;;;;;;;6.57;3.60;;;;;;;1.07;95.00;96133.41;5097917;28;20472;-85
2021/01/26 07:53:13;;;;;;;9.87;4.00;;;;;;;1.13;94.16;96130.03;5097484;28;20449;-84
2021/01/26 07:55:46;;;;;;;12.47;5.40;;;;;;;1.14;94.52;96134.84;5098295;28;20420;-85
2021/01/26 07:58:15;;;;;;;12.43;4.73;;;;;;;1.16;93.89;96137.75;5098690;28;20462;-86
2021/01/26 08:00:46;;;;;;;15.97;5.07;;;;;;;1.22;93.35;96135.13;5099837;28;20459;-86
2021/01/26 08:03:12;;;;;;;10.50;4.13;;;;;;;1.20;93.54;96143.56;5102636;28;20873;-87
2021/01/26 08:05:45;;;;;;;11.87;4.23;;;;;;;1.24;92.96;96148.63;5114640;28;20448;-88
2021/01/26 08:08:21;;;;;;;8.03;3.57;;;;;;;1.35;92.34;96144.03;5108832;28;20448;-86
2021/01/26 08:10:48;;;;;;;5.60;3.60;;;;;;;1.35;91.79;96151.28;5093345;28;20481;-86
2021/01/26 08:13:27;;;;;;;10.07;4.53;;;;;;;1.41;92.05;96147.41;5076685;28;20499;-87
2021/01/26 08:15:54;;;;;;;6.60;3.50;;;;;;;1.35;91.49;96145.97;5076719;28;20428;-87
2021/01/26 08:18:25;;;;;;;8.60;2.83;;;;;;;1.35;91.71;96149.34;5077236;28;20477;-87
2021/01/26 08:20:52;;;;;;;14.33;3.50;;;;;;;1.50;90.43;96147.16;5076745;28;20515;-86
2021/01/26 08:23:27;;;;;;;6.83;2.83;;;;;;;1.57;89.87;96159.25;5076514;28;20445;-86
2021/01/26 08:25:55;;;;;;;7.60;3.43;;;;;;;1.54;90.19;96155.63;5076978;28;20394;-87
2021/01/26 08:28:45;;;;;;;9.67;3.40;;;;;;;1.60;89.28;96166.25;5077245;28;20456;-88
2021/01/26 08:31:27;;;;;;;9.57;3.33;;;;;;;1.67;89.88;96167.69;5077416;28;20508;-86
2021/01/26 08:33:56;;;;;;;4.93;2.93;;;;;;;1.55;89.49;96177.63;5079706;28;20508;-87
2021/01/26 08:36:31;;;;;;;6.20;3.53;;;;;;;1.62;89.35;96182.47;5076908;28;20442;-87
2021/01/26 08:39:00;;;;;;;6.53;2.83;;;;;;;1.60;89.09;96187.53;5090579;28;20481;-87
2021/01/26 08:41:36;;;;;;;8.33;3.80;;;;;;;1.67;88.82;96173.00;5079664;28;20529;-87
2021/01/26 08:44:04;;;;;;;12.97;4.87;;;;;;;1.77;88.66;96193.56;5077451;28;20453;-86
2021/01/26 08:46:37;;;;;;;11.13;4.07;;;;;;;1.77;89.12;96187.50;5076577;28;20495;-86
2021/01/26 08:49:16;;;;;;;8.60;4.47;;;;;;;1.49;89.62;96187.53;5083398;28;20433;-89
2021/01/26 08:51:43;;;;;;;15.90;4.70;;;;;;;1.56;90.36;96185.13;5096778;28;20488;-84
2021/01/26 08:54:09;;;;;;;7.00;4.27;;;;;;;1.55;90.86;96188.25;5098629;28;20449;-84
2021/01/26 08:56:40;;;;;;;13.73;5.40;;;;;;;1.56;90.22;96192.38;5097549;28;20813;-84
2021/01/26 08:59:13;;;;;;;6.03;3.70;;;;;;;1.44;90.37;96185.59;5098447;28;20429;-87
2021/01/26 09:01:53;;;;;;;11.47;5.30;;;;;;;1.50;90.58;96189.00;5097221;28;20472;-86
2021/01/26 09:04:47;;;;;;;11.53;5.10;;;;;;;1.48;90.45;96194.78;5097671;28;20443;-87
2021/01/26 09:07:51;;;;;;;9.70;4.90;;;;;;;1.42;90.24;96196.72;5099683;28;20520;-88
2021/01/26 09:10:32;;;;;;;5.77;4.07;;;;;;;1.50;89.93;96205.63;5100468;28;20956;-88
2021/01/26 09:13:09;;;;;;;11.80;5.03;;;;;;;1.45;89.48;96203.00;5097494;28;20443;-87
2021/01/26 09:15:44;;;;;;;7.67;4.33;;;;;;;1.52;89.14;96197.94;5093030;28;20438;-87
2021/01/26 09:18:15;;;;;;;8.53;4.30;;;;;;;1.45;88.82;96208.31;5077582;28;20498;-86
2021/01/26 09:20:43;;;;;;;7.13;4.07;;;;;;;1.53;88.18;96202.03;5077391;28;20551;-88
2021/01/26 09:23:11;;;;;;;5.97;3.63;;;;;;;1.50;87.59;96216.28;5088204;28;20444;-90
2021/01/26 09:25:42;;;;;;;8.23;3.47;;;;;;;1.54;87.55;96226.66;5099895;28;20444;-90
2021/01/26 09:28:11;;;;;;;10.73;3.70;;;;;;;1.61;87.76;96210.25;5099847;28;20457;-88
2021/01/26 09:30:40;;;;;;;7.40;3.90;;;;;;;1.59;86.81;96223.31;5099076;28;20472;-89
2021/01/26 09:33:19;;;;;;;8.33;3.83;;;;;;;1.60;87.13;96220.16;5100909;28;20444;-88
2021/01/26 09:35:47;;;;;;;9.23;3.63;;;;;;;1.61;86.85;96226.19;5099669;28;20440;-87
2021/01/26 09:38:20;;;;;;;8.50;3.40;;;;;;;1.73;87.07;96227.66;5098914;28;20449;-87
2021/01/26 09:40:55;;;;;;;9.63;4.03;;;;;;;1.82;86.47;96229.31;5098021;28;20526;-90
2021/01/26 09:43:23;;;;;;;5.83;3.07;;;;;;;1.97;84.52;96238.50;5096498;28;20427;-88
2021/01/26 09:45:56;;;;;;;11.20;4.50;;;;;;;2.17;84.08;96240.91;5096453;28;20941;-88
2021/01/26 09:48:33;;;;;;;12.23;4.73;;;;;;;2.45;83.43;96237.44;5097245;28;20527;-90
2021/01/26 09:51:05;;;;;;;22.20;4.17;;;;;;;2.54;82.48;96243.25;5105370;28;20501;-87
2021/01/26 09:53:32;;;;;;;7.37;3.40;;;;;;;2.54;81.89;96235.25;5121913;28;20432;-89
2021/01/26 09:56:00;;;;;;;5.43;3.53;;;;;;;2.52;81.77;96250.28;5122033;28;20479;-90
2021/01/26 09:58:27;;;;;;;3.87;2.73;;;;;;;2.37;81.99;96239.19;5120999;28;20436;-85
2021/01/26 10:00:55;;;;;;;4.43;2.90;;;;;;;2.34;81.92;96242.81;5112757;28;20427;-88
2021/01/26 10:03:24;;;;;;;4.80;2.47;;;;;;;2.43;82.23;96247.88;5107018;28;20443;-91
2021/01/26 10:05:54;;;;;;;4.10;2.77;;;;;;;2.38;82.10;96254.66;5105339;28;20460;-90
2021/01/26 10:08:27;;;;;;;6.20;3.10;;;;;;;2.32;81.78;96251.28;5104776;28;20433;-88
2021/01/26 10:10:54;;;;;;;5.97;3.40;;;;;;;2.23;81.54;96261.47;5111066;28;20508;-92
2021/01/26 10:13:32;;;;;;;3.23;2.33;;;;;;;2.18;82.02;96260.25;5108937;28;20449;-88
2021/01/26 10:16:30;;;;;;;10.40;2.80;;;;;;;2.22;81.68;96252.78;5109255;28;20443;-88
2021/01/26 10:18:58;;;;;;;4.67;2.40;;;;;;;2.27;81.96;96252.03;5105284;28;20768;-88
2021/01/26 10:21:29;;;;;;;6.47;2.90;;;;;;;2.48;81.68;96257.78;5100422;28;20495;-88
2021/01/26 10:24:06;;;;;;;4.43;2.97;;;;;;;2.60;80.40;96254.59;5100523;28;20539;-87
2021/01/26 10:26:35;;;;;;;4.83;3.23;;;;;;;2.66;80.58;96254.59;5102566;28;20446;-90
2021/01/26 10:29:14;;;;;;;5.20;2.93;;;;;;;2.67;79.68;96267.41;5101435;28;20503;-88
2021/01/26 10:31:45;;;;;;;13.00;2.80;;;;;;;2.93;78.97;96266.34;5100511;28;20487;-89
2021/01/26 10:34:20;;;;;;;3.93;2.30;;;;;;;3.01;78.28;96268.00;5101470;28;20429;-90
2021/01/26 10:36:46;;;;;;;9.17;2.40;;;;;;;3.17;77.16;96279.81;5101343;28;20401;-88
2021/01/26 10:39:30;;;;;;;4.90;2.70;;;;;;;3.34;76.76;96277.06;5101081;28;20445;-87
2021/01/26 10:42:03;;;;;;;6.23;2.53;;;;;;;3.35;75.91;96284.56;5099234;28;20448;-89
2021/01/26 10:44:30;;;;;;;5.07;3.10;;;;;;;3.22;76.23;96285.13;5099975;28;20420;-88
2021/01/26 10:46:58;;;;;;;7.27;2.50;;;;;;;2.99;76.58;96278.44;5099254;28;20568;-89
2021/01/26 10:49:30;;;;;;;3.80;1.80;;;;;;;2.88;76.47;96286.47;5100898;28;20446;-87
2021/01/26 10:51:59;;;;;;;6.37;3.23;;;;;;;2.88;76.79;96285.75;5101170;28;20867;-88
2021/01/26 10:54:25;;;;;;;5.47;2.27;;;;;;;2.79;77.32;96286.03;5100618;28;20448;-89
2021/01/26 10:56:52;;;;;;;5.23;2.70;;;;;;;2.70;77.19;96295.72;5099825;28;20959;-88
2021/01/26 10:59:19;;;;;;;3.00;2.53;;;;;;;2.74;78.00;96284.81;5099772;28;20445;-88
2021/01/26 11:01:47;;;;;;;5.17;2.30;;;;;;;2.62;78.11;96289.47;5101255;28;20479;-89
2021/01/26 11:04:15;;;;;;;4.80;2.80;;;;;;;2.66;78.00;96289.91;5101606;28;20476;-88
2021/01/26 11:06:41;;;;;;;6.63;2.57;;;;;;;2.72;77.56;96297.19;5099870;28;20438;-87
2021/01/26 11:09:09;;;;;;;6.60;3.27;;;;;;;2.66;77.50;96294.53;5099114;28;20523;-90
2021/01/26 11:11:36;;;;;;;4.57;2.17;;;;;;;2.53;77.26;96302.31;5099378;28;20527;-86
2021/01/26 11:14:05;;;;;;;4.90;2.47;;;;;;;2.63;78.06;96282.91;5098840;28;20448;-89
2021/01/26 11:16:32;;;;;;;5.80;3.40;;;;;;;2.46;78.07;96300.16;5098500;28;20540;-86
2021/01/26 11:19:00;;;;;;;8.03;2.33;;;;;;;2.41;78.62;96298.94;5098495;28;20474;-86
2021/01/26 11:21:28;;;;;;;7.20;2.17;;;;;;;2.50;78.48;96303.28;5098844;28;20424;-84
2021/01/26 11:23:54;;;;;;;7.10;2.20;;;;;;;2.47;78.23;96298.94;5100392;28;20436;-84
2021/01/26 11:26:23;;;;;;;4.77;2.17;;;;;;;2.41;78.44;96298.22;5099875;28;20421;-84
2021/01/26 11:28:50;;;;;;;3.27;2.53;;;;;;;2.44;78.29;96302.56;5100402;28;20482;-83
2021/01/26 11:31:17;;;;;;;5.80;2.50;;;;;;;2.48;77.60;96301.09;5099831;28;21019;-83
2021/01/26 11:33:44;;;;;;;6.23;2.00;;;;;;;2.48;78.18;96305.69;5099174;28;20440;-83
2021/01/26 11:36:11;;;;;;;6.40;2.97;;;;;;;2.45;78.17;96304.00;5102093;28;20436;-82
2021/01/26 11:38:38;;;;;;;5.73;2.80;;;;;;;2.59;77.00;96297.72;5101964;28;20461;-85
2021/01/26 11:41:05;;;;;;;5.03;2.80;;;;;;;2.62;76.53;96305.44;5099635;28;20555;-83
2021/01/26 11:43:32;;;;;;;9.77;2.83;;;;;;;2.75;76.15;96307.59;5099940;28;20524;-84
2021/01/26 11:45:59;;;;;;;4.40;2.30;;;;;;;2.94;75.43;96295.19;5100345;28;20445;-84
2021/01/26 11:48:26;;;;;;;4.20;2.27;;;;;;;2.87;75.36;96293.03;5099382;28;20510;-83
2021/01/26 11:50:52;;;;;;;8.33;2.30;;;;;;;2.98;75.03;96294.91;5100418;28;20542;-85
2021/01/26 11:53:20;;;;;;;4.43;2.47;;;;;;;3.01;74.31;96297.31;5100418;28;20452;-83
2021/01/26 11:55:49;;;;;;;5.33;1.80;;;;;;;3.14;74.50;96297.50;5098234;28;20444;-83
2021/01/26 11:58:16;;;;;;;7.10;2.23;;;;;;;2.99;73.10;96305.09;5097915;28;20523;-84
2021/01/26 12:00:43;;;;;;;6.00;2.33;;;;;;;3.03;73.11;96313.56;5101247;28;20444;-87
2021/01/26 12:03:09;;;;;;;5.57;1.80;;;;;;;3.01;72.17;96315.97;5102615;28;20415;-90
2021/01/26 12:05:38;;;;;;;4.63;2.07;;;;;;;3.06;72.25;96312.56;5105057;28;20818;-90